Time;durP1;ratioP1;P1;durP2;ratioP2;P2;SDS_P1;SDS_P2;PMS_P1;PMS_P2;Temp;Humidity;BMP_temperature;BMP_pressure;BME280_temperature;BME280_humidity;BME280_pressure;Samples;Min_cycle;Max_cycle;Signal;HPM_P1;HPM_P2
2021/03/25 00:01:38;;;;;;;146.27;70.40;;;102.40;2227.20;;;;;;5034869;28;20057;-57
2021/03/25 00:04:04;;;;;;;89.90;45.47;;;102.50;2227.20;;;;;;5031028;28;20367;-58
2021/03/25 00:06:32;;;;;;;106.55;50.83;;;102.40;2227.20;;;;;;5036944;28;20033;-57
2021/03/25 00:08:57;;;;;;;166.45;74.28;;;77.70;2227.20;;;;;;5029367;28;20026;-58
2021/03/25 00:11:23;;;;;;;195.48;87.57;;;77.70;2227.20;;;;;;5023696;28;20462;-59
2021/03/25 00:13:49;;;;;;;165.32;76.50;;;77.50;2227.20;;;;;;5025100;28;20560;-58
2021/03/25 00:16:15;;;;;;;176.25;82.80;;;77.40;2227.20;;;;;;5022912;28;20072;-58
2021/03/25 00:18:41;;;;;;;156.05;72.78;;;77.30;2227.20;;;;;;5024172;28;20021;-58
2021/03/25 00:21:10;;;;;;;141.10;66.20;;;77.30;2227.20;;;;;;5028707;28;20475;-58
2021/03/25 00:23:36;;;;;;;127.88;62.60;;;77.30;2227.20;;;;;;5030471;28;20018;-57
2021/03/25 00:26:03;;;;;;;161.32;75.43;;;77.30;2227.20;;;;;;5030246;28;20033;-57
2021/03/25 00:28:28;;;;;;;159.93;77.72;;;77.30;2227.20;;;;;;5031543;28;20051;-58
2021/03/25 00:30:55;;;;;;;179.43;86.70;;;77.30;2227.20;;;;;;5024365;28;20041;-57
2021/03/25 00:33:22;;;;;;;199.60;92.30;;;77.30;2227.20;;;;;;5024488;28;20033;-57
2021/03/25 00:35:49;;;;;;;180.70;88.38;;;77.20;2227.20;;;;;;5023833;28;20026;-59
2021/03/25 00:38:16;;;;;;;104.38;50.85;;;77.20;2227.20;;;;;;5022345;28;20027;-58
2021/03/25 00:40:48;;;;;;;82.53;41.50;;;77.10;2227.20;;;;;;5024050;28;20025;-58
2021/03/25 00:43:14;;;;;;;66.78;36.42;;;77.10;2227.20;;;;;;5024026;28;20056;-59
2021/03/25 00:45:45;;;;;;;69.82;36.38;;;76.90;2227.20;;;;;;5024607;28;20029;-58
2021/03/25 00:48:13;;;;;;;60.15;31.42;;;52.10;2227.20;;;;;;5023718;28;20144;-57
2021/03/25 00:50:45;;;;;;;68.90;36.25;;;51.90;2227.20;;;;;;5014790;28;20037;-58
2021/03/25 00:53:14;;;;;;;69.55;36.22;;;51.90;2227.20;;;;;;5013621;28;20120;-58
2021/03/25 00:55:40;;;;;;;72.03;36.55;;;51.80;2227.20;;;;;;5016746;28;20053;-58
2021/03/25 00:58:05;;;;;;;69.60;35.13;;;51.70;2227.20;;;;;;5023569;28;20060;-60
2021/03/25 01:00:34;;;;;;;84.40;41.35;;;51.80;2227.20;;;;;;5023239;28;20041;-59
2021/03/25 01:03:00;;;;;;;82.80;41.63;;;51.70;2227.20;;;;;;5021693;28;20038;-58
2021/03/25 01:05:28;;;;;;;102.82;49.90;;;51.80;2227.20;;;;;;5023373;28;20033;-57
2021/03/25 01:08:28;;;;;;;77.35;38.95;;;51.80;2227.20;;;;;;5023227;28;20048;-58
2021/03/25 01:11:00;;;;;;;76.38;37.72;;;51.80;2227.20;;;;;;5023859;28;20474;-55
2021/03/25 01:13:32;;;;;;;76.35;39.15;;;51.70;2227.20;;;;;;5023806;28;20040;-56
2021/03/25 01:15:59;;;;;;;73.32;36.35;;;51.70;2227.20;;;;;;5023614;28;20076;-57
2021/03/25 01:18:26;;;;;;;63.08;33.60;;;51.70;2227.20;;;;;;5023811;28;20028;-55
2021/03/25 01:20:53;;;;;;;69.30;34.75;;;51.70;2227.20;;;;;;5022699;28;20475;-57
2021/03/25 01:23:19;;;;;;;63.30;33.05;;;51.70;2227.20;;;;;;5021440;28;20057;-58
2021/03/25 01:25:45;;;;;;;56.63;30.15;;;51.60;2227.20;;;;;;5023517;28;20467;-55
2021/03/25 01:28:13;;;;;;;47.90;26.80;;;51.60;2227.20;;;;;;5022482;28;20022;-55
2021/03/25 01:30:39;;;;;;;51.83;28.80;;;51.40;2227.20;;;;;;5021383;28;20142;-56
2021/03/25 01:33:07;;;;;;;49.85;27.20;;;51.20;2227.20;;;;;;5023204;28;20555;-56
2021/03/25 01:35:36;;;;;;;47.88;26.25;;;51.20;2227.20;;;;;;5022805;28;20037;-56
2021/03/25 01:38:04;;;;;;;50.17;26.55;;;26.50;2201.60;;;;;;5021307;28;20026;-55
2021/03/25 01:40:35;;;;;;;46.40;25.27;;;26.40;2201.60;;;;;;5022520;28;20018;-56
2021/03/25 01:43:13;;;;;;;43.97;24.50;;;26.40;2201.60;;;;;;5023515;28;20459;-56
2021/03/25 01:46:04;;;;;;;44.20;23.75;;;26.30;2201.60;;;;;;5023195;28;20034;-56
2021/03/25 01:48:38;;;;;;;41.33;21.15;;;26.30;2201.60;;;;;;5028931;28;20018;-55
2021/03/25 01:51:20;;;;;;;63.42;31.13;;;26.20;2201.60;;;;;;5027791;28;20014;-56
2021/03/25 01:54:05;;;;;;;85.22;33.60;;;26.10;2201.60;;;;;;5023396;28;20038;-56
2021/03/25 01:56:55;;;;;;;85.93;33.25;;;26.00;2201.60;;;;;;5023173;28;20097;-55
2021/03/25 01:59:54;;;;;;;62.65;25.63;;;26.00;2201.60;;;;;;5023530;28;20021;-55
2021/03/25 02:02:23;;;;;;;51.83;19.20;;;25.90;2201.60;;;;;;5023340;28;20018;-55
2021/03/25 02:05:21;;;;;;;70.00;16.63;;;25.90;2201.60;;;;;;5024645;28;20490;-56
2021/03/25 02:08:16;;;;;;;87.45;18.92;;;25.90;2201.60;;;;;;5029126;28;20111;-58
2021/03/25 02:10:54;;;;;;;99.07;19.13;;;26.00;2201.60;;;;;;5032129;28;20071;-56
2021/03/25 02:13:30;;;;;;;95.82;20.95;;;26.00;2201.60;;;;;;5024899;28;20038;-55
2021/03/25 02:16:04;;;;;;;175.63;26.52;;;25.90;2201.60;;;;;;5025552;28;20038;-56
2021/03/25 02:18:59;;;;;;;60.90;24.08;;;25.90;2201.60;;;;;;5027171;28;20056;-56
2021/03/25 02:21:52;;;;;;;69.50;27.58;;;25.90;2201.60;;;;;;5027030;28;20029;-57
2021/03/25 02:24:41;;;;;;;98.77;35.00;;;25.90;2201.60;;;;;;5027032;28;20025;-56
2021/03/25 02:27:28;;;;;;;68.85;28.70;;;26.00;2201.60;;;;;;5027046;28;20473;-56
2021/03/25 02:30:13;;;;;;;93.70;34.75;;;26.10;2201.60;;;;;;5037219;28;20043;-57
2021/03/25 02:32:57;;;;;;;111.57;45.00;;;26.10;2201.60;;;;;;5031887;28;20076;-56
2021/03/25 02:35:51;;;;;;;136.07;49.90;;;26.20;2201.60;;;;;;5026680;28;20014;-56
2021/03/25 02:38:29;;;;;;;164.70;58.75;;;26.30;2201.60;;;;;;5025858;28;20102;-56
2021/03/25 02:41:00;;;;;;;191.35;63.38;;;26.40;2201.60;;;;;;5026546;28;20459;-55
2021/03/25 02:43:41;;;;;;;173.75;63.38;;;26.50;2201.60;;;;;;5026519;28;20468;-56
2021/03/25 02:46:10;;;;;;;146.20;53.38;;;26.50;2201.60;;;;;;5026483;28;20080;-56
2021/03/25 02:48:38;;;;;;;125.70;50.40;;;51.20;2227.20;;;;;;5025910;28;20467;-56
2021/03/25 02:51:18;;;;;;;101.18;41.70;;;51.30;2227.20;;;;;;5035845;28;20022;-55
2021/03/25 02:53:45;;;;;;;94.38;38.88;;;51.30;2227.20;;;;;;5029203;28;20056;-56
2021/03/25 02:56:28;;;;;;;99.72;40.17;;;51.40;2227.20;;;;;;5024852;28;20375;-56
2021/03/25 02:59:05;;;;;;;106.45;43.38;;;51.40;2227.20;;;;;;5026315;28;20025;-55
2021/03/25 03:01:38;;;;;;;98.28;39.50;;;51.40;2227.20;;;;;;5026220;28;20021;-56
2021/03/25 03:04:09;;;;;;;89.35;36.90;;;51.50;2227.20;;;;;;5025988;28;20471;-55
2021/03/25 03:06:40;;;;;;;90.22;35.53;;;51.50;2227.20;;;;;;5025409;28;20021;-55
2021/03/25 03:09:11;;;;;;;82.90;34.83;;;51.50;2227.20;;;;;;5026361;28;20356;-59
2021/03/25 03:11:42;;;;;;;79.28;34.67;;;51.50;2227.20;;;;;;5025596;28;20117;-58
2021/03/25 03:14:14;;;;;;;80.57;33.70;;;51.60;2227.20;;;;;;5025610;28;20029;-55
2021/03/25 03:16:47;;;;;;;76.18;32.47;;;51.60;2227.20;;;;;;5024993;28;20026;-55
2021/03/25 03:19:39;;;;;;;79.15;32.55;;;51.60;2227.20;;;;;;5026041;28;20048;-56
2021/03/25 03:22:07;;;;;;;78.60;32.65;;;51.60;2227.20;;;;;;5026793;28;20068;-55
2021/03/25 03:24:34;;;;;;;82.43;33.53;;;51.70;2227.20;;;;;;5023266;28;20022;-55
2021/03/25 03:27:35;;;;;;;77.35;32.72;;;51.70;2227.20;;;;;;5056897;28;20518;-55
2021/03/25 03:30:05;;;;;;;75.80;32.97;;;51.70;2227.20;;;;;;5018856;28;20413;-55
2021/03/25 03:32:40;;;;;;;77.30;32.55;;;51.70;2227.20;;;;;;5017522;28;20064;-55
2021/03/25 03:35:15;;;;;;;76.00;31.80;;;51.70;2227.20;;;;;;5027669;28;20025;-55
2021/03/25 03:37:49;;;;;;;93.55;36.42;;;51.80;2227.20;;;;;;5028232;28;20032;-55
2021/03/25 03:40:37;;;;;;;93.40;39.33;;;51.80;2227.20;;;;;;5028965;28;20083;-55
2021/03/25 03:43:14;;;;;;;95.35;38.40;;;51.80;2227.20;;;;;;5019431;28;20303;-56
2021/03/25 03:46:09;;;;;;;89.45;36.55;;;51.90;2227.20;;;;;;5017613;28;20490;-55
2021/03/25 03:48:37;;;;;;;;;;;51.90;2227.20;;;;;;5028802;28;20056;-56
2021/03/25 03:51:07;;;;;;;78.03;34.05;;;51.90;2227.20;;;;;;5019386;28;19913;-55
2021/03/25 03:53:33;;;;;;;80.35;35.30;;;51.90;2227.20;;;;;;5017184;28;20034;-56
2021/03/25 03:56:18;;;;;;;86.10;38.03;;;51.90;2227.20;;;;;;5016974;28;20112;-55
2021/03/25 03:58:53;;;;;;;82.35;35.63;;;51.90;2227.20;;;;;;5019010;28;20021;-55
2021/03/25 04:01:37;;;;;;;84.47;36.70;;;51.90;2227.20;;;;;;5017051;28;20497;-55
2021/03/25 04:04:06;;;;;;;75.07;33.58;;;51.90;2227.20;;;;;;5025323;28;20029;-56
2021/03/25 04:06:40;;;;;;;65.88;30.63;;;51.90;2227.20;;;;;;5017055;28;20030;-56
2021/03/25 04:09:18;;;;;;;68.75;30.42;;;51.80;2227.20;;;;;;5018894;28;20025;-55
2021/03/25 04:11:55;;;;;;;67.65;30.75;;;51.70;2227.20;;;;;;5018704;28;20041;-55
2021/03/25 04:14:29;;;;;;;66.75;30.77;;;51.60;2227.20;;;;;;5017100;28;20052;-55
2021/03/25 04:16:58;;;;;;;62.88;28.30;;;51.50;2227.20;;;;;;5028276;28;20128;-56
2021/03/25 04:19:32;;;;;;;63.22;29.27;;;51.50;2227.20;;;;;;5019047;28;20018;-55
2021/03/25 04:22:07;;;;;;;60.63;29.23;;;51.40;2227.20;;;;;;5016615;28;20059;-56
2021/03/25 04:24:35;;;;;;;;;;;51.40;2227.20;;;;;;5024363;28;20041;-55
2021/03/25 04:27:13;;;;;;;63.85;28.17;;;51.40;2227.20;;;;;;5022492;28;20306;-56
2021/03/25 04:29:57;;;;;;;58.67;28.83;;;51.30;2227.20;;;;;;5027417;28;20063;-55
2021/03/25 04:32:23;;;;;;;67.40;29.83;;;51.30;2227.20;;;;;;5023128;28;20038;-55
2021/03/25 04:34:50;;;;;;;64.00;28.95;;;51.30;2227.20;;;;;;5022397;28;20053;-55
2021/03/25 04:37:16;;;;;;;58.05;28.70;;;51.30;2227.20;;;;;;5022935;28;20017;-55
2021/03/25 04:39:43;;;;;;;64.18;30.58;;;51.20;2227.20;;;;;;5022624;28;20117;-55
2021/03/25 04:42:10;;;;;;;59.08;28.27;;;51.20;2227.20;;;;;;5022144;28;20028;-56
2021/03/25 04:44:49;;;;;;;57.83;29.13;;;26.50;2201.60;;;;;;5022740;28;20013;-55
2021/03/25 04:47:33;;;;;;;59.25;28.63;;;26.50;2201.60;;;;;;5022540;28;20022;-56
2021/03/25 04:50:14;;;;;;;62.00;29.48;;;26.50;2201.60;;;;;;5022924;28;20546;-56
2021/03/25 04:52:40;;;;;;;65.78;31.80;;;51.20;2227.20;;;;;;5023189;28;20050;-55
2021/03/25 04:55:26;;;;;;;66.70;32.65;;;26.50;2201.60;;;;;;5020988;28;20026;-55
2021/03/25 04:57:58;;;;;;;67.15;32.17;;;51.20;2227.20;;;;;;5021868;28;20038;-56
2021/03/25 05:00:29;;;;;;;76.65;36.75;;;51.30;2227.20;;;;;;5021480;28;20025;-56
2021/03/25 05:02:55;;;;;;;78.43;37.25;;;51.30;2227.20;;;;;;5021503;28;20053;-56
2021/03/25 05:05:25;;;;;;;82.13;37.90;;;51.40;2227.20;;;;;;5021546;28;20073;-56
2021/03/25 05:08:07;;;;;;;83.85;39.92;;;51.50;2227.20;;;;;;5023120;28;20028;-56
2021/03/25 05:10:52;;;;;;;98.93;43.40;;;51.60;2227.20;;;;;;5021198;28;20033;-57
2021/03/25 05:13:19;;;;;;;105.18;45.67;;;51.70;2227.20;;;;;;5023157;28;20096;-56
2021/03/25 05:15:45;;;;;;;112.15;52.10;;;51.90;2227.20;;;;;;5024066;28;20017;-57
2021/03/25 05:18:23;;;;;;;103.93;48.38;;;52.00;2227.20;;;;;;5024036;28;20494;-57
2021/03/25 05:20:59;;;;;;;98.43;47.05;;;76.80;2227.20;;;;;;5023887;28;20030;-57
2021/03/25 05:23:54;;;;;;;126.30;57.05;;;77.00;2227.20;;;;;;5020261;28;20017;-59
2021/03/25 05:26:37;;;;;;;131.38;66.47;;;77.10;2227.20;;;;;;5019932;28;20502;-56
2021/03/25 05:29:06;;;;;;;125.43;63.53;;;77.30;2227.20;;;;;;5020191;28;20088;-56
2021/03/25 05:31:34;;;;;;;116.03;57.97;;;77.50;2227.20;;;;;;5018035;28;20187;-57
2021/03/25 05:34:05;;;;;;;93.72;46.95;;;77.60;2227.20;;;;;;5020359;28;20116;-56
2021/03/25 05:36:33;;;;;;;91.32;46.55;;;102.40;2227.20;;;;;;5018970;28;20060;-58
2021/03/25 05:38:58;;;;;;;101.82;51.42;;;102.60;2227.20;;;;;;5018593;28;20041;-58
2021/03/25 05:41:33;;;;;;;115.40;58.38;;;102.70;2227.20;;;;;;5018733;28;20018;-57
2021/03/25 05:44:32;;;;;;;135.80;64.15;;;102.80;2227.20;;;;;;5019109;28;20111;-56
2021/03/25 05:46:58;;;;;;;162.15;73.57;;;102.90;2227.20;;;;;;5023481;28;20029;-57
2021/03/25 05:49:23;;;;;;;169.65;78.65;;;103.10;2227.20;;;;;;5020729;28;20055;-59
2021/03/25 05:52:17;;;;;;;180.50;79.82;;;103.30;2227.20;;;;;;5037579;28;20041;-58
2021/03/25 05:55:05;;;;;;;153.57;72.88;;;128.10;2252.80;;;;;;5038670;28;20032;-59
2021/03/25 05:57:37;;;;;;;166.60;82.40;;;128.20;2252.80;;;;;;5053230;28;20029;-58
2021/03/25 06:00:26;;;;;;;225.65;99.80;;;128.30;2252.80;;;;;;5053506;28;20025;-56
2021/03/25 06:02:54;;;;;;;179.57;88.40;;;128.50;2252.80;;;;;;5053352;28;20119;-57
2021/03/25 06:05:19;;;;;;;157.98;74.80;;;128.60;2252.80;;;;;;5053285;28;20025;-56
2021/03/25 06:08:13;;;;;;;143.98;70.85;;;128.80;2252.80;;;;;;5053414;28;20021;-58
2021/03/25 06:11:03;;;;;;;113.82;54.85;;;128.80;2252.80;;;;;;5051958;28;20033;-57
2021/03/25 06:13:35;;;;;;;122.68;59.88;;;128.90;2252.80;;;;;;5036332;28;20099;-56
2021/03/25 06:16:23;;;;;;;115.25;57.83;;;153.60;2252.80;;;;;;5039346;28;20025;-57
2021/03/25 06:19:34;;;;;;;103.57;54.10;;;153.80;2252.80;;;;;;5051742;28;20032;-57
2021/03/25 06:22:12;;;;;;;113.18;60.67;;;153.80;2252.80;;;;;;5026709;28;20033;-56
2021/03/25 06:24:47;;;;;;;161.63;83.63;;;153.90;2252.80;;;;;;5013177;28;20138;-59
2021/03/25 06:27:27;;;;;;;166.93;88.77;;;153.90;2252.80;;;;;;5022211;28;20036;-56
2021/03/25 06:30:02;;;;;;;205.18;103.60;;;154.10;2252.80;;;;;;5011240;28;20025;-58
2021/03/25 06:32:45;;;;;;;148.93;76.67;;;154.40;2252.80;;;;;;5019959;28;20492;-58
2021/03/25 06:35:16;;;;;;;92.28;49.47;;;179.20;2252.80;;;;;;5011369;28;20266;-57
2021/03/25 06:37:52;;;;;;;64.72;36.33;;;179.40;2252.80;;;;;;4991653;28;20507;-58
2021/03/25 06:40:18;;;;;;;56.50;32.88;;;179.70;2252.80;;;;;;5011315;28;20593;-57
2021/03/25 06:42:50;;;;;;;57.42;34.50;;;179.90;2201.60;;;;;;5030965;28;20057;-57
2021/03/25 06:45:16;;;;;;;84.70;47.50;;;180.10;2176.00;;;;;;5031004;28;20529;-56
2021/03/25 06:47:42;;;;;;;99.63;55.60;;;204.90;2124.80;;;;;;5035716;28;20037;-57
2021/03/25 06:50:08;;;;;;;65.07;38.13;;;205.30;2099.20;;;;;;5019577;28;20030;-56
2021/03/25 06:52:38;;;;;;;64.00;40.53;;;205.40;2048.00;;;;;;5019183;28;20517;-59
2021/03/25 06:55:19;;;;;;;60.53;37.05;;;230.60;1971.20;;;;;;5016061;28;20030;-56
2021/03/25 06:58:03;;;;;;;54.97;34.67;;;231.20;1894.40;;;;;;5031744;28;20497;-57
2021/03/25 07:00:34;;;;;;;96.20;54.53;;;256.80;1740.80;;;;;;5044512;28;20033;-56
2021/03/25 07:03:03;;;;;;;111.70;62.38;;;307.70;1638.40;;;;;;5032739;28;20029;-55
2021/03/25 07:05:32;;;;;;;44.28;29.27;;;333.20;1484.80;;;;;;5034340;28;20083;-58
2021/03/25 07:08:13;;;;;;;44.70;31.88;;;358.70;1356.80;;;;;;5036004;28;20060;-56
2021/03/25 07:10:39;;;;;;;41.15;30.27;;;359.30;1331.20;;;;;;5039928;28;20037;-56
2021/03/25 07:13:07;;;;;;;35.90;26.17;;;384.90;1254.40;;;;;;5047583;28;20087;-56
2021/03/25 07:15:39;;;;;;;38.67;28.67;;;384.30;1254.40;;;;;;5049481;28;20025;-56
2021/03/25 07:18:57;;;;;;;33.00;24.40;;;410.00;1228.80;;;;;;5053304;28;20071;-56
2021/03/25 07:21:30;;;;;;;35.58;25.77;;;460.80;1075.20;;;;;;5033185;28;20048;-56
2021/03/25 07:23:58;;;;;;;30.92;24.70;;;486.60;972.80;;;;;;5033185;28;20017;-56
2021/03/25 07:26:41;;;;;;;31.15;25.65;;;512.10;896.00;;;;;;5033235;28;20026;-56
2021/03/25 07:29:10;;;;;;;33.70;26.38;;;538.00;844.80;;;;;;5027985;28;20033;-57
2021/03/25 07:32:00;;;;;;;28.60;24.42;;;538.40;819.20;;;;;;5027743;28;20095;-57
2021/03/25 07:34:30;;;;;;;34.13;26.63;;;563.40;793.60;;;;;;5013139;28;20034;-57
2021/03/25 07:36:57;;;;;;;31.25;26.52;;;538.00;844.80;;;;;;5012949;28;20030;-56
2021/03/25 07:39:34;;;;;;;30.75;26.50;;;537.60;870.40;;;;;;5032995;28;20034;-57
2021/03/25 07:42:00;;;;;;;33.35;25.38;;;487.30;921.60;;;;;;5013148;28;20079;-58
2021/03/25 07:44:31;;;;;;;28.23;22.20;;;512.00;896.00;;;;;;5021800;28;20108;-57
2021/03/25 07:47:00;;;;;;;29.85;23.42;;;486.90;947.20;;;;;;5025590;28;20383;-56
2021/03/25 07:49:38;;;;;;;55.85;40.97;;;486.50;972.80;;;;;;5032722;28;20041;-58
2021/03/25 07:52:30;;;;;;;35.35;27.17;;;461.70;972.80;;;;;;5032761;28;20049;-57
2021/03/25 07:55:12;;;;;;;55.53;38.15;;;461.30;998.40;;;;;;5032628;28;20045;-57
2021/03/25 07:57:44;;;;;;;37.35;28.15;;;460.80;1049.60;;;;;;5045350;28;20138;-59
2021/03/25 08:00:29;;;;;;;65.28;44.33;;;436.10;998.40;;;;;;5034815;28;20028;-56
2021/03/25 08:03:18;;;;;;;47.92;33.80;;;435.90;1024.00;;;;;;5017532;28;20026;-58
2021/03/25 09:54:00;;;;;;;31.27;22.67;;;461.00;972.80;;;;;;5130326;27;20392;-62
2021/03/25 09:56:28;;;;;;;31.20;22.13;;;487.00;844.80;;;;;;5119401;27;20095;-60
2021/03/25 09:58:55;;;;;;;26.67;19.63;;;486.90;844.80;;;;;;5110674;28;20048;-61
2021/03/25 10:01:42;;;;;;;31.00;22.00;;;486.90;844.80;;;;;;5108309;28;20031;-60
2021/03/25 10:04:20;;;;;;;45.05;32.58;;;486.90;819.20;;;;;;5106049;28;20164;-63
2021/03/25 10:06:49;;;;;;;34.40;24.55;;;487.20;844.80;;;;;;5111164;28;20031;-63
2021/03/25 10:09:14;;;;;;;39.83;28.90;;;486.90;844.80;;;;;;5106058;28;20035;-61
2021/03/25 10:12:09;;;;;;;28.05;20.70;;;486.70;870.40;;;;;;5108239;28;20020;-61
2021/03/25 10:14:51;;;;;;;26.83;19.73;;;486.70;844.80;;;;;;5109015;28;20016;-61
2021/03/25 10:17:46;;;;;;;30.67;22.77;;;486.60;870.40;;;;;;5110153;28;20133;-61
2021/03/25 10:20:33;;;;;;;32.22;22.95;;;486.90;844.80;;;;;;5092032;28;20056;-61
2021/03/25 10:22:59;;;;;;;21.23;15.95;;;487.10;819.20;;;;;;5110254;28;20075;-64
2021/03/25 10:25:28;;;;;;;28.10;21.88;;;486.90;768.00;;;;;;5097603;28;20059;-64
2021/03/25 10:27:59;;;;;;;23.50;18.02;;;537.90;742.40;;;;;;5098643;28;20024;-62
2021/03/25 10:30:30;;;;;;;21.90;15.95;;;538.00;691.20;;;;;;5098911;28;20352;-61
2021/03/25 10:32:57;;;;;;;19.92;15.85;;;538.00;716.80;;;;;;5098492;28;20099;-61
2021/03/25 10:35:29;;;;;;;17.65;13.88;;;538.10;691.20;;;;;;5099434;28;20384;-61
2021/03/25 10:37:59;;;;;;;20.00;15.10;;;563.40;716.80;;;;;;5099360;28;20027;-62
2021/03/25 10:40:37;;;;;;;18.67;15.05;;;588.80;665.60;;;;;;5106869;28;20508;-62
2021/03/25 10:43:14;;;;;;;23.48;18.35;;;588.80;665.60;;;;;;5106318;28;20170;-62
2021/03/25 10:46:06;;;;;;;43.80;29.10;;;589.40;614.40;;;;;;5107683;28;20023;-62
2021/03/25 10:48:43;;;;;;;31.27;20.80;;;614.80;563.20;;;;;;5105797;28;20062;-62
2021/03/25 10:51:12;;;;;;;39.15;23.48;;;640.10;512.00;;;;;;5104520;28;20024;-62
2021/03/25 10:53:53;;;;;;;27.88;19.58;;;640.50;486.40;;;;;;5100292;28;20068;-62
2021/03/25 10:56:25;;;;;;;15.57;12.52;;;640.90;460.80;;;;;;5092992;28;20422;-62
2021/03/25 10:59:01;;;;;;;23.15;16.55;;;665.60;486.40;;;;;;5093043;28;20020;-62
2021/03/25 11:01:32;;;;;;;10.95;9.27;;;665.80;460.80;;;;;;5090572;28;20024;-62
2021/03/25 11:03:59;;;;;;;8.85;6.78;;;691.20;384.00;;;;;;5093393;28;20032;-62
2021/03/25 11:06:29;;;;;;;13.48;10.95;;;692.00;307.20;;;;;;5092955;28;20050;-61
2021/03/25 11:09:08;;;;;;;15.68;12.23;;;691.50;358.40;;;;;;5092765;28;20373;-62
2021/03/25 11:11:36;;;;;;;15.88;13.38;;;691.40;409.60;;;;;;5093412;28;20028;-62
2021/03/25 11:14:05;;;;;;;17.30;13.63;;;691.60;409.60;;;;;;5093208;28;20031;-62
2021/03/25 11:16:32;;;;;;;19.58;13.23;;;717.50;358.40;;;;;;5093177;28;20043;-62
2021/03/25 11:19:12;;;;;;;14.00;11.60;;;743.10;358.40;;;;;;5093241;28;20035;-62
2021/03/25 11:21:40;;;;;;;11.38;9.60;;;768.80;307.20;;;;;;5092553;28;20032;-62
2021/03/25 11:24:25;;;;;;;19.90;15.30;;;793.60;307.20;;;;;;5091948;28;20058;-62
2021/03/25 11:27:02;;;;;;;11.20;9.77;;;793.90;281.60;;;;;;5090846;28;20099;-62
2021/03/25 11:29:35;;;;;;;12.55;10.25;;;768.00;281.60;;;;;;5091715;28;20024;-62
2021/03/25 11:32:20;;;;;;;12.88;11.38;;;717.60;307.20;;;;;;5092792;28;20472;-61
2021/03/25 11:34:50;;;;;;;14.77;12.40;;;692.10;332.80;;;;;;5091763;28;20107;-62
2021/03/25 11:37:36;;;;;;;11.15;9.35;;;691.20;358.40;;;;;;5094415;28;20016;-61
2021/03/25 11:40:15;;;;;;;12.05;8.93;;;666.00;384.00;;;;;;5093876;28;20108;-61
2021/03/25 11:43:02;;;;;;;13.55;11.88;;;665.80;358.40;;;;;;5093874;28;20066;-61
2021/03/25 11:45:44;;;;;;;13.60;10.50;;;640.80;358.40;;;;;;5094671;28;20056;-61
2021/03/25 11:48:26;;;;;;;16.38;12.98;;;640.30;409.60;;;;;;5094134;28;20020;-61
2021/03/25 11:50:55;;;;;;;14.35;11.85;;;614.90;435.20;;;;;;5090214;28;20020;-62
2021/03/25 11:53:41;;;;;;;21.70;14.65;;;614.50;460.80;;;;;;5090616;28;20043;-61
2021/03/25 11:56:31;;;;;;;18.88;14.15;;;589.60;460.80;;;;;;5091627;28;20369;-61
2021/03/25 11:58:57;;;;;;;15.27;12.35;;;614.50;435.20;;;;;;5092667;28;20024;-61
2021/03/25 12:01:25;;;;;;;14.57;11.95;;;614.70;409.60;;;;;;5092975;28;20050;-61
2021/03/25 12:04:02;;;;;;;43.15;16.30;;;614.80;460.80;;;;;;5092376;28;20027;-61
2021/03/25 12:06:34;;;;;;;22.58;14.82;;;640.10;409.60;;;;;;5083280;28;20052;-62
2021/03/25 12:09:15;;;;;;;23.77;19.58;;;615.10;435.20;;;;;;5085106;28;20121;-61
2021/03/25 12:11:48;;;;;;;11.57;9.18;;;666.00;358.40;;;;;;5088294;28;20494;-61
2021/03/25 12:14:16;;;;;;;13.00;10.73;;;743.00;307.20;;;;;;5092756;28;20430;-61
2021/03/25 12:16:42;;;;;;;13.90;11.25;;;794.10;281.60;;;;;;5092776;28;20024;-61
2021/03/25 12:19:09;;;;;;;11.23;9.77;;;845.60;256.00;;;;;;5091876;28;20477;-61
2021/03/25 12:21:37;;;;;;;11.13;9.07;;;870.90;256.00;;;;;;5082945;28;20107;-61
2021/03/25 12:24:05;;;;;;;11.07;9.10;;;922.00;281.60;;;;;;5088587;28;20496;-61
2021/03/25 12:26:31;;;;;;;10.80;9.70;;;947.40;281.60;;;;;;5092570;28;20066;-61
2021/03/25 12:29:03;;;;;;;8.48;7.53;;;947.70;281.60;;;;;;5092607;28;20545;-61
2021/03/25 12:31:37;;;;;;;9.80;8.80;;;973.60;307.20;;;;;;5091662;28;20024;-61
2021/03/25 12:34:05;;;;;;;9.48;7.88;;;973.40;307.20;;;;;;5088515;28;20036;-62
2021/03/25 12:36:32;;;;;;;8.13;7.00;;;922.50;281.60;;;;;;5089931;28;20354;-63
2021/03/25 12:38:58;;;;;;;8.40;7.15;;;845.60;256.00;;;;;;5092294;28;20024;-61
2021/03/25 12:41:32;;;;;;;9.57;8.18;;;819.20;256.00;;;;;;5091079;28;20034;-61
2021/03/25 12:43:58;;;;;;;19.75;16.77;;;742.80;281.60;;;;;;5085897;28;20123;-61
2021/03/25 12:46:24;;;;;;;46.13;38.28;;;691.50;332.80;;;;;;5090858;28;20115;-61
2021/03/25 12:48:50;;;;;;;13.70;11.48;;;640.60;358.40;;;;;;5091530;28;20107;-60
2021/03/25 12:51:16;;;;;;;11.45;9.93;;;717.30;307.20;;;;;;5086980;28;20363;-61
2021/03/25 12:53:44;;;;;;;11.10;9.68;;;768.50;256.00;;;;;;5082917;28;20048;-62
2021/03/25 12:56:33;;;;;;;14.48;12.45;;;819.20;230.40;;;;;;5089739;28;20184;-62
2021/03/25 12:59:13;;;;;;;9.30;7.13;;;870.40;256.00;;;;;;5090129;28;20112;-62
2021/03/25 13:01:39;;;;;;;7.63;6.82;;;844.90;256.00;;;;;;5086487;28;20533;-62
2021/03/25 13:04:05;;;;;;;8.32;6.57;;;820.00;230.40;;;;;;5084827;28;20028;-62
2021/03/25 13:06:31;;;;;;;8.02;6.95;;;768.50;256.00;;;;;;5088288;28;20043;-62
2021/03/25 13:08:57;;;;;;;8.07;6.60;;;742.70;307.20;;;;;;5091993;28;20024;-61
2021/03/25 13:11:26;;;;;;;10.68;7.55;;;742.40;281.60;;;;;;5091640;28;20035;-61
2021/03/25 13:13:53;;;;;;;8.02;7.18;;;691.80;307.20;;;;;;5090810;28;20017;-61
2021/03/25 13:16:19;;;;;;;8.27;6.80;;;665.60;358.40;;;;;;5091879;28;20020;-61
2021/03/25 13:18:46;;;;;;;12.05;9.00;;;640.00;358.40;;;;;;5091926;28;20032;-61
2021/03/25 13:21:13;;;;;;;12.45;9.23;;;614.60;409.60;;;;;;5091781;28;20031;-61
2021/03/25 13:23:39;;;;;;;12.55;9.00;;;589.50;435.20;;;;;;5091355;28;20024;-61
2021/03/25 13:26:07;;;;;;;12.98;9.82;;;588.90;460.80;;;;;;5090122;28;20035;-61
2021/03/25 13:28:33;;;;;;;11.10;8.50;;;588.80;486.40;;;;;;5090158;28;20522;-61
2021/03/25 13:30:59;;;;;;;153.90;83.38;;;563.80;512.00;;;;;;5090289;28;20477;-61
2021/03/25 13:33:25;;;;;;;12.52;8.80;;;563.40;512.00;;;;;;5090306;28;20516;-61
2021/03/25 13:35:52;;;;;;;14.95;9.98;;;563.50;512.00;;;;;;5090219;28;20073;-61
2021/03/25 13:38:18;;;;;;;23.70;14.85;;;538.40;512.00;;;;;;5090057;28;20377;-61
2021/03/25 13:40:44;;;;;;;10.90;7.90;;;538.10;537.60;;;;;;5088358;28;20372;-61
2021/03/25 13:43:18;;;;;;;15.75;10.65;;;537.70;537.60;;;;;;5083843;28;20031;-61
2021/03/25 13:45:44;;;;;;;14.80;10.77;;;512.90;512.00;;;;;;5086851;28;20506;-61
2021/03/25 13:48:10;;;;;;;17.10;11.82;;;537.70;563.20;;;;;;5091363;28;20031;-61
2021/03/25 13:50:36;;;;;;;19.88;14.57;;;538.00;563.20;;;;;;5088335;28;20354;-61
2021/03/25 13:53:02;;;;;;;16.85;11.95;;;538.10;563.20;;;;;;5088151;28;20036;-61
2021/03/25 13:55:34;;;;;;;18.15;13.25;;;538.00;537.60;;;;;;5092658;28;20035;-61
2021/03/25 13:58:00;;;;;;;13.45;8.82;;;538.40;512.00;;;;;;5092464;28;20081;-61
2021/03/25 14:00:27;;;;;;;46.95;27.98;;;563.20;537.60;;;;;;5093457;28;20028;-61
2021/03/25 14:02:54;;;;;;;17.27;11.07;;;588.90;486.40;;;;;;5088862;28;20032;-61
2021/03/25 14:05:21;;;;;;;15.85;10.98;;;563.80;512.00;;;;;;5092574;28;20366;-60
2021/03/25 14:07:46;;;;;;;14.75;11.25;;;589.30;460.80;;;;;;5092574;28;20024;-61
2021/03/25 14:10:14;;;;;;;21.15;13.52;;;665.80;358.40;;;;;;5092396;28;20024;-61
2021/03/25 14:12:41;;;;;;;17.33;12.13;;;665.60;384.00;;;;;;5078103;28;20115;-61
2021/03/25 14:15:11;;;;;;;11.52;8.73;;;614.50;435.20;;;;;;5079051;28;20053;-61
2021/03/25 14:17:37;;;;;;;96.90;59.70;;;563.80;512.00;;;;;;5076528;28;20032;-60
2021/03/25 14:20:10;;;;;;;36.40;22.15;;;538.00;537.60;;;;;;5086148;28;20149;-61
2021/03/25 14:22:36;;;;;;;50.03;30.52;;;512.50;588.80;;;;;;5079334;28;20074;-61
2021/03/25 14:25:02;;;;;;;20.85;14.50;;;512.50;588.80;;;;;;5089844;28;20059;-60
2021/03/25 14:27:27;;;;;;;28.83;19.25;;;665.60;384.00;;;;;;5076364;28;20093;-62